createdAt,value
2019-03-26T00:00:08.940Z,92.66
2019-03-26T00:01:08.934Z,92.97
2019-03-26T00:02:08.928Z,93.28
2019-03-26T00:03:08.933Z,93.07
2019-03-26T00:04:08.911Z,92.97
2019-03-26T00:05:08.886Z,92.55
2019-03-26T00:06:08.877Z,92.24
2019-03-26T00:07:08.886Z,92.03
2019-03-26T00:08:08.871Z,91.72
2019-03-26T00:09:08.863Z,92.14
2019-03-26T00:10:08.836Z,92.45
2019-03-26T00:11:08.847Z,92.24
2019-03-26T00:12:08.818Z,92.35
2019-03-26T00:13:08.798Z,92.24
2019-03-26T00:14:08.793Z,93.07
2019-03-26T00:15:08.824Z,92.76
2019-03-26T00:16:08.784Z,93.59
2019-03-26T00:17:08.758Z,93.18
2019-03-26T00:18:08.759Z,93.28
2019-03-26T00:19:08.737Z,92.55
2019-03-26T00:20:08.734Z,93.49
2019-03-26T00:21:08.741Z,93.59
2019-03-26T00:22:08.706Z,92.59
2019-03-26T00:23:08.695Z,92.76
2019-03-26T00:24:08.682Z,93.38
2019-03-26T00:25:08.682Z,93.84
2019-03-26T00:26:08.671Z,93.63
2019-03-26T00:27:08.765Z,93.63
2019-03-26T00:28:08.657Z,94.15
2019-03-26T00:29:08.627Z,93.80
2019-03-26T00:30:08.618Z,93.59
2019-03-26T00:31:08.625Z,93.80
2019-03-26T00:32:08.597Z,93.49
2019-03-26T00:33:08.602Z,93.38
2019-03-26T00:34:18.611Z,93.18
2019-03-26T00:35:09.563Z,93.28
2019-03-26T00:36:08.564Z,93.07
2019-03-26T00:37:08.553Z,93.54
2019-03-26T00:38:08.531Z,94.27
2019-03-26T00:39:08.546Z,94.21
2019-03-26T00:40:08.513Z,93.59
2019-03-26T00:41:08.507Z,94.17
2019-03-26T00:42:08.486Z,93.54
2019-03-26T00:43:08.478Z,93.85
2019-03-26T00:44:08.468Z,93.75
2019-03-26T00:45:08.486Z,94.17
2019-03-26T00:46:08.444Z,93.13
2019-03-26T00:47:08.434Z,93.13
2019-03-26T00:48:08.427Z,93.07
2019-03-26T00:49:08.431Z,93.23
2019-03-26T00:50:08.414Z,93.02
2019-03-26T00:51:08.404Z,93.13
2019-03-26T00:52:08.387Z,93.65
2019-03-26T00:53:08.379Z,92.76
2019-03-26T00:54:08.377Z,92.20
2019-03-26T00:55:21.585Z,92.41
2019-03-26T00:56:09.353Z,92.61
2019-03-26T00:57:08.320Z,92.61
2019-03-26T00:58:08.319Z,92.20
2019-03-26T00:59:08.308Z,91.89
2019-03-26T01:00:08.294Z,92.72
2019-03-26T01:01:08.282Z,93.02
2019-03-26T01:02:08.299Z,93.44
2019-03-26T01:03:08.265Z,92.61
2019-03-26T01:04:08.254Z,92.93
2019-03-26T01:05:08.241Z,92.93
2019-03-26T01:06:08.221Z,92.72
2019-03-26T01:07:08.244Z,92.61
2019-03-26T01:08:08.225Z,92.72
2019-03-26T01:09:08.277Z,92.93
2019-03-26T01:10:08.183Z,92.51
2019-03-26T01:11:08.170Z,93.59
2019-03-26T01:12:08.176Z,92.72
2019-03-26T01:13:08.148Z,91.99
2019-03-26T01:14:08.169Z,92.82
2019-03-26T01:15:08.126Z,92.66
2019-03-26T01:16:08.111Z,93.07
2019-03-26T01:17:08.113Z,93.44
2019-03-26T01:18:08.176Z,93.02
2019-03-26T01:19:08.098Z,93.44
2019-03-26T01:20:08.108Z,93.18
2019-03-26T01:21:08.063Z,93.02
2019-03-26T01:22:08.084Z,93.23
2019-03-26T01:23:08.054Z,93.18
2019-03-26T01:24:08.027Z,93.23
2019-03-26T01:25:08.031Z,93.44
2019-03-26T01:26:08.049Z,93.02
2019-03-26T01:27:07.995Z,93.65
2019-03-26T01:28:07.991Z,93.54
2019-03-26T01:29:07.984Z,93.70
2019-03-26T01:30:07.964Z,93.75
2019-03-26T01:31:07.953Z,93.70
2019-03-26T01:32:07.955Z,94.17
2019-03-26T01:33:07.928Z,93.85
2019-03-26T01:34:07.917Z,94.27
2019-03-26T01:35:07.928Z,93.44
2019-03-26T01:36:07.906Z,93.54
2019-03-26T01:37:07.885Z,94.27
2019-03-26T01:38:07.900Z,94.06
2019-03-26T01:39:07.866Z,93.85
2019-03-26T01:40:07.876Z,93.96
2019-03-26T01:41:07.843Z,94.27
2019-03-26T01:42:07.833Z,94.42
2019-03-26T01:43:07.825Z,94.27
2019-03-26T01:44:07.855Z,94.06
2019-03-26T01:45:07.804Z,94.06
2019-03-26T01:46:07.796Z,94.21
2019-03-26T01:47:07.784Z,94.32
2019-03-26T01:48:07.789Z,94.27
2019-03-26T01:49:07.773Z,94.27
2019-03-26T01:50:07.786Z,94.32
2019-03-26T01:51:07.742Z,93.85
2019-03-26T01:52:07.731Z,94.42
2019-03-26T01:53:07.761Z,94.37
2019-03-26T01:54:07.713Z,94.27
2019-03-26T01:55:07.713Z,94.32
2019-03-26T01:56:07.716Z,93.96
2019-03-26T01:57:07.687Z,93.54
2019-03-26T01:58:07.677Z,93.44
2019-03-26T01:59:07.666Z,92.72
2019-03-26T02:00:07.657Z,92.82
2019-03-26T02:01:07.634Z,92.97
2019-03-26T02:02:07.640Z,93.23
2019-03-26T02:03:07.620Z,93.33
2019-03-26T02:04:07.614Z,93.13
2019-03-26T02:05:07.592Z,93.75
2019-03-26T02:06:07.587Z,93.65
2019-03-26T02:07:07.592Z,93.54
2019-03-26T02:08:07.588Z,93.54
2019-03-26T02:09:07.549Z,93.33
2019-03-26T02:10:07.542Z,93.44
2019-03-26T02:11:07.551Z,93.96
2019-03-26T02:12:07.522Z,94.17
2019-03-26T02:13:07.512Z,94.27
2019-03-26T02:14:07.512Z,94.01
2019-03-26T02:15:07.487Z,94.11
2019-03-26T02:16:07.483Z,93.96
2019-03-26T02:17:07.487Z,94.17
2019-03-26T02:18:07.462Z,93.70
2019-03-26T02:19:07.455Z,93.49
2019-03-26T02:20:07.468Z,93.96
2019-03-26T02:21:07.446Z,93.54
2019-03-26T02:22:07.418Z,93.85
2019-03-26T02:23:07.411Z,94.27
2019-03-26T02:24:07.402Z,93.54
2019-03-26T02:25:07.394Z,93.44
2019-03-26T02:26:07.393Z,93.33
2019-03-26T02:27:07.367Z,93.33
2019-03-26T02:28:07.356Z,92.93
2019-03-26T02:29:07.356Z,92.93
2019-03-26T02:30:07.339Z,92.51
2019-03-26T02:31:07.333Z,92.51
2019-03-26T02:32:07.345Z,92.30
2019-03-26T02:33:07.308Z,92.72
2019-03-26T02:34:07.301Z,92.72
2019-03-26T02:35:17.724Z,92.93
2019-03-26T02:36:08.294Z,93.02
2019-03-26T02:37:07.274Z,92.72
2019-03-26T02:38:07.278Z,92.51
2019-03-26T02:39:07.281Z,93.33
2019-03-26T02:40:07.236Z,93.02
2019-03-26T02:41:07.226Z,93.54
2019-03-26T02:42:07.214Z,92.82
2019-03-26T02:43:07.213Z,93.07
2019-03-26T02:44:07.231Z,93.44
2019-03-26T02:45:07.186Z,93.54
2019-03-26T02:46:07.176Z,92.20
2019-03-26T02:47:07.172Z,92.72
2019-03-26T02:48:07.153Z,92.20
2019-03-26T02:49:07.164Z,92.72
2019-03-26T02:50:07.155Z,92.20
2019-03-26T02:51:07.121Z,92.20
2019-03-26T02:52:07.139Z,92.35
2019-03-26T02:53:08.980Z,92.51
2019-03-26T02:54:07.091Z,92.61
2019-03-26T02:55:07.081Z,92.51
2019-03-26T02:56:07.134Z,92.10
2019-03-26T02:57:07.097Z,91.89
2019-03-26T02:58:07.063Z,92.03
2019-03-26T02:59:07.089Z,91.58
2019-03-26T03:00:07.034Z,91.47
2019-03-26T03:01:07.051Z,91.16
2019-03-26T03:02:07.035Z,91.47
2019-03-26T03:03:07.020Z,91.89
2019-03-26T03:04:06.988Z,91.27
2019-03-26T03:05:06.990Z,91.68
2019-03-26T03:06:06.991Z,91.58
2019-03-26T03:07:06.971Z,91.68
2019-03-26T03:08:06.970Z,91.31
2019-03-26T03:09:06.936Z,91.20
2019-03-26T03:10:06.932Z,90.64
2019-03-26T03:11:06.939Z,91.16
2019-03-26T03:12:06.914Z,91.68
2019-03-26T03:13:06.900Z,90.95
2019-03-26T03:14:06.927Z,90.95
2019-03-26T03:15:06.938Z,91.27
2019-03-26T03:16:06.874Z,91.27
2019-03-26T03:17:06.851Z,90.95
2019-03-26T03:18:06.839Z,90.69
2019-03-26T03:19:06.834Z,91.16
2019-03-26T03:20:06.868Z,90.85
2019-03-26T03:21:06.817Z,90.85
2019-03-26T03:22:06.797Z,91.27
2019-03-26T03:23:06.787Z,91.16
2019-03-26T03:24:06.775Z,91.06
2019-03-26T03:25:06.780Z,91.47
2019-03-26T03:26:06.909Z,90.75
2019-03-26T03:27:06.744Z,91.31
2019-03-26T03:28:06.735Z,91.37
2019-03-26T03:29:06.770Z,91.00
2019-03-26T03:30:06.730Z,91.41
2019-03-26T03:31:06.717Z,91.27
2019-03-26T03:32:06.707Z,90.89
2019-03-26T03:33:06.702Z,89.92
2019-03-26T03:34:06.674Z,89.81
2019-03-26T03:35:06.665Z,89.61
2019-03-26T03:36:06.646Z,90.12
2019-03-26T03:37:06.644Z,89.81
2019-03-26T03:38:06.651Z,90.33
2019-03-26T03:39:06.657Z,90.23
2019-03-26T03:40:06.709Z,90.85
2019-03-26T03:41:06.594Z,90.95
2019-03-26T03:42:06.585Z,90.02
2019-03-26T03:43:06.603Z,89.61
2019-03-26T03:44:06.587Z,89.50
2019-03-26T03:45:06.559Z,89.50
2019-03-26T03:46:06.541Z,89.50
2019-03-26T03:47:06.536Z,89.92
2019-03-26T03:48:06.541Z,90.17
2019-03-26T03:49:06.516Z,90.02
2019-03-26T03:50:06.516Z,90.23
2019-03-26T03:51:06.488Z,90.23
2019-03-26T03:52:06.475Z,90.75
2019-03-26T03:53:06.467Z,90.17
2019-03-26T03:54:06.457Z,89.65
2019-03-26T03:55:06.444Z,89.54
2019-03-26T03:56:06.450Z,89.86
2019-03-26T03:57:06.426Z,89.86
2019-03-26T03:58:06.421Z,88.46
2019-03-26T03:59:06.411Z,88.98
2019-03-26T04:00:06.393Z,88.82
2019-03-26T04:01:06.383Z,89.40
2019-03-26T04:02:06.389Z,89.19
2019-03-26T04:03:06.371Z,89.40
2019-03-26T04:04:06.358Z,90.12
2019-03-26T04:05:06.335Z,90.12
2019-03-26T04:06:09.447Z,89.65
2019-03-26T04:07:06.314Z,89.29
2019-03-26T04:08:06.345Z,89.29
2019-03-26T04:09:06.290Z,89.29
2019-03-26T04:10:06.286Z,89.54
2019-03-26T04:11:06.273Z,89.65
2019-03-26T04:12:06.263Z,89.75
2019-03-26T04:13:06.250Z,89.29
2019-03-26T04:14:06.263Z,89.54
2019-03-26T04:15:06.228Z,89.65
2019-03-26T04:16:06.247Z,89.34
2019-03-26T04:17:06.206Z,89.23
2019-03-26T04:18:06.190Z,89.13
2019-03-26T04:19:06.183Z,89.86
2019-03-26T04:20:06.200Z,90.06
2019-03-26T04:21:06.180Z,90.58
2019-03-26T04:22:06.153Z,89.34
2019-03-26T04:23:06.145Z,89.54
2019-03-26T04:24:06.125Z,89.86
2019-03-26T04:25:06.121Z,89.65
2019-03-26T04:26:06.141Z,89.96
2019-03-26T04:27:06.109Z,89.54
2019-03-26T04:28:06.082Z,89.34
2019-03-26T04:29:06.099Z,89.03
2019-03-26T04:30:06.061Z,88.92
2019-03-26T04:31:06.059Z,89.03
2019-03-26T04:32:06.096Z,88.20
2019-03-26T04:33:06.034Z,89.03
2019-03-26T04:34:06.017Z,88.09
2019-03-26T04:35:06.023Z,88.20
2019-03-26T04:36:06.006Z,88.51
2019-03-26T04:37:05.990Z,88.92
2019-03-26T04:38:05.989Z,88.82
2019-03-26T04:39:05.962Z,88.61
2019-03-26T04:40:05.972Z,88.92
2019-03-26T04:41:05.960Z,89.23
2019-03-26T04:42:05.943Z,88.92
2019-03-26T04:43:05.921Z,89.03
2019-03-26T04:44:05.932Z,87.88
2019-03-26T04:45:05.907Z,87.68
2019-03-26T04:46:05.886Z,87.47
2019-03-26T04:47:05.902Z,85.91
2019-03-26T04:48:05.864Z,86.95
2019-03-26T04:49:05.871Z,86.22
2019-03-26T04:50:05.859Z,87.05
2019-03-26T04:51:05.837Z,86.95
2019-03-26T04:52:05.840Z,86.22
2019-03-26T04:53:05.817Z,85.50
2019-03-26T04:54:05.806Z,85.39
2019-03-26T04:55:05.788Z,85.91
2019-03-26T04:56:05.800Z,86.33
2019-03-26T04:57:05.769Z,86.12
2019-03-26T04:58:05.756Z,86.64
2019-03-26T04:59:05.746Z,86.12
2019-03-26T05:00:05.745Z,85.60
2019-03-26T05:01:05.739Z,85.39
2019-03-26T05:02:05.738Z,86.12
2019-03-26T05:03:05.725Z,85.71
2019-03-26T05:04:05.690Z,85.19
2019-03-26T05:05:05.713Z,85.60
2019-03-26T05:06:05.670Z,85.81
2019-03-26T05:07:05.654Z,85.19
2019-03-26T05:08:05.677Z,86.33
2019-03-26T05:09:05.638Z,86.33
2019-03-26T05:10:05.623Z,86.95
2019-03-26T05:11:05.610Z,85.71
2019-03-26T05:12:05.600Z,86.22
2019-03-26T05:13:05.596Z,85.39
2019-03-26T05:14:05.627Z,86.12
2019-03-26T05:15:05.573Z,86.12
2019-03-26T05:16:05.555Z,85.91
2019-03-26T05:17:05.548Z,86.22
2019-03-26T05:18:05.537Z,86.95
2019-03-26T05:19:05.522Z,87.47
2019-03-26T05:20:05.531Z,87.26
2019-03-26T05:21:05.537Z,85.71
2019-03-26T05:22:05.507Z,86.12
2019-03-26T05:23:05.480Z,86.95
2019-03-26T05:24:05.470Z,86.95
2019-03-26T05:25:05.529Z,85.29
2019-03-26T05:26:05.477Z,86.22
2019-03-26T05:27:05.442Z,85.50
2019-03-26T05:28:05.426Z,86.43
2019-03-26T05:29:05.412Z,86.95
2019-03-26T05:30:05.417Z,87.05
2019-03-26T05:31:05.397Z,87.16
2019-03-26T05:32:05.401Z,87.47
2019-03-26T05:33:05.459Z,87.47
2019-03-26T05:34:05.361Z,87.16
2019-03-26T05:35:05.352Z,87.78
2019-03-26T05:36:05.347Z,87.99
2019-03-26T05:37:05.344Z,87.88
2019-03-26T05:38:05.362Z,88.40
2019-03-26T05:39:05.302Z,89.17
2019-03-26T05:40:05.293Z,88.96
2019-03-26T05:41:05.287Z,88.96
2019-03-26T05:42:05.278Z,88.82
2019-03-26T05:43:05.259Z,88.82
2019-03-26T05:44:05.264Z,89.48
2019-03-26T05:45:05.261Z,89.48
2019-03-26T05:46:05.225Z,89.58
2019-03-26T05:47:05.224Z,88.82
2019-03-26T05:48:05.208Z,89.06
2019-03-26T05:49:05.207Z,88.82
2019-03-26T05:50:05.219Z,88.30
2019-03-26T05:51:05.173Z,88.09
2019-03-26T05:52:05.166Z,85.29
2019-03-26T05:53:05.153Z,85.08
2019-03-26T05:54:05.140Z,83.94
2019-03-26T05:55:05.133Z,83.01
2019-03-26T05:56:05.139Z,83.32
2019-03-26T05:57:05.104Z,83.90
2019-03-26T05:58:05.096Z,84.56
2019-03-26T05:59:05.087Z,84.25
2019-03-26T06:00:05.082Z,84.46
2019-03-26T06:01:05.081Z,83.32
2019-03-26T06:02:14.331Z,83.42
2019-03-26T06:03:06.036Z,83.53
2019-03-26T06:04:05.031Z,83.42
2019-03-26T06:05:05.019Z,84.21
2019-03-26T06:06:05.004Z,85.29
2019-03-26T06:07:05.471Z,84.83
2019-03-26T06:08:05.016Z,82.55
2019-03-26T06:09:04.985Z,83.07
2019-03-26T06:10:05.043Z,83.59
2019-03-26T06:11:04.951Z,83.01
2019-03-26T06:12:04.944Z,83.32
2019-03-26T06:13:04.941Z,83.90
2019-03-26T06:14:04.947Z,83.90
2019-03-26T06:15:04.913Z,84.36
2019-03-26T06:16:04.906Z,83.69
2019-03-26T06:17:04.882Z,83.17
2019-03-26T06:18:04.884Z,83.17
2019-03-26T06:19:04.861Z,83.69
2019-03-26T06:20:04.865Z,83.28
2019-03-26T06:21:04.837Z,84.11
2019-03-26T06:22:04.827Z,83.69
2019-03-26T06:23:04.817Z,83.80
2019-03-26T06:24:04.806Z,83.69
2019-03-26T06:25:04.798Z,83.69
2019-03-26T06:26:04.822Z,84.00
2019-03-26T06:27:04.775Z,83.80
2019-03-26T06:28:04.771Z,83.69
2019-03-26T06:29:04.757Z,83.38
2019-03-26T06:30:04.739Z,82.76
2019-03-26T06:31:04.733Z,82.55
2019-03-26T06:32:04.735Z,83.69
2019-03-26T06:33:04.716Z,83.65
2019-03-26T06:34:04.697Z,82.72
2019-03-26T06:35:04.692Z,83.65
2019-03-26T06:36:04.674Z,83.45
2019-03-26T06:37:17.058Z,83.65
2019-03-26T06:38:05.668Z,83.65
2019-03-26T06:39:04.643Z,83.45
2019-03-26T06:40:04.631Z,83.55
2019-03-26T06:41:04.636Z,84.11
2019-03-26T06:42:04.609Z,83.34
2019-03-26T06:43:04.650Z,81.62
2019-03-26T06:44:04.640Z,81.62
2019-03-26T06:45:04.588Z,82.45
2019-03-26T06:46:04.574Z,81.79
2019-03-26T06:47:04.560Z,81.41
2019-03-26T06:48:04.784Z,81.41
2019-03-26T06:49:04.535Z,80.58
2019-03-26T06:50:04.537Z,79.55
2019-03-26T06:51:04.512Z,80.65
2019-03-26T06:52:04.499Z,80.33
2019-03-26T06:53:04.488Z,78.89
2019-03-26T06:54:04.476Z,78.78
2019-03-26T06:55:04.490Z,78.89
2019-03-26T06:56:04.490Z,80.09
2019-03-26T06:57:04.446Z,80.40
2019-03-26T06:58:04.451Z,78.02
2019-03-26T06:59:04.428Z,78.85
2019-03-26T07:00:07.017Z,78.27
2019-03-26T07:01:04.426Z,78.78
2019-03-26T07:02:04.409Z,78.33
2019-03-26T07:03:04.387Z,78.44
2019-03-26T07:04:04.379Z,79.06
2019-03-26T07:05:04.404Z,79.47
2019-03-26T07:06:04.354Z,78.44
2019-03-26T07:07:04.341Z,78.23
2019-03-26T07:08:04.348Z,78.64
2019-03-26T07:09:04.322Z,78.02
2019-03-26T07:10:04.333Z,79.16
2019-03-26T07:11:04.294Z,79.44
2019-03-26T07:12:04.284Z,80.40
2019-03-26T07:13:04.280Z,80.61
2019-03-26T07:14:04.290Z,81.13
2019-03-26T07:15:04.255Z,79.78
2019-03-26T07:16:04.272Z,80.23
2019-03-26T07:17:04.238Z,80.40
2019-03-26T07:18:04.224Z,80.13
2019-03-26T07:19:04.211Z,80.19
2019-03-26T07:20:04.222Z,78.99
2019-03-26T07:21:04.190Z,79.37
2019-03-26T07:22:04.180Z,80.40
2019-03-26T07:23:04.167Z,81.34
2019-03-26T07:24:04.159Z,80.61
2019-03-26T07:25:04.158Z,78.44
2019-03-26T07:26:04.156Z,78.99
2019-03-26T07:27:04.138Z,78.64
2019-03-26T07:28:04.197Z,79.27
2019-03-26T07:29:04.106Z,78.75
2019-03-26T07:30:04.101Z,79.37
2019-03-26T07:31:04.087Z,79.44
2019-03-26T07:32:04.095Z,78.81
2019-03-26T07:33:04.065Z,79.44
2019-03-26T07:34:07.090Z,80.26
2019-03-26T07:35:04.041Z,78.92
2019-03-26T07:36:04.047Z,79.02
2019-03-26T07:37:04.019Z,79.44
2019-03-26T07:38:04.029Z,79.95
2019-03-26T07:39:04.001Z,80.74
2019-03-26T07:40:03.989Z,78.88
2019-03-26T07:41:03.983Z,78.05
2019-03-26T07:42:03.970Z,78.16
2019-03-26T07:43:03.957Z,78.67
2019-03-26T07:44:03.969Z,79.40
2019-03-26T07:45:03.936Z,78.99
2019-03-26T07:46:03.928Z,78.26
2019-03-26T07:47:03.918Z,78.33
2019-03-26T07:48:03.909Z,78.64
2019-03-26T07:49:03.897Z,78.43
2019-03-26T07:50:03.899Z,78.85
2019-03-26T07:51:03.876Z,79.05
2019-03-26T07:52:03.866Z,80.08
2019-03-26T07:53:03.854Z,78.95
2019-03-26T07:54:03.845Z,80.19
2019-03-26T07:55:03.837Z,79.98
2019-03-26T07:56:03.846Z,78.85
2019-03-26T07:57:03.816Z,78.85
2019-03-26T07:58:03.816Z,80.29
2019-03-26T07:59:03.800Z,80.19
2019-03-26T08:00:03.782Z,79.16
2019-03-26T08:01:03.775Z,80.19
2019-03-26T08:02:03.797Z,79.36
2019-03-26T08:03:03.755Z,79.26
2019-03-26T08:04:03.748Z,78.64
2019-03-26T08:05:03.746Z,78.57
2019-03-26T08:06:03.725Z,77.81
2019-03-26T08:07:03.710Z,80.29
2019-03-26T08:08:03.729Z,80.50
2019-03-26T08:09:03.697Z,77.70
2019-03-26T08:10:03.692Z,77.81
2019-03-26T08:11:03.675Z,78.39
2019-03-26T08:12:03.752Z,77.19
2019-03-26T08:13:03.674Z,77.67
2019-03-26T08:14:03.660Z,76.53
2019-03-26T08:15:03.668Z,77.74
2019-03-26T08:16:03.635Z,77.22
2019-03-26T08:17:03.658Z,76.01
2019-03-26T08:18:03.612Z,76.81
2019-03-26T08:19:03.584Z,76.70
2019-03-26T08:20:03.588Z,75.36
2019-03-26T08:21:03.566Z,75.26
2019-03-26T08:22:03.552Z,76.39
2019-03-26T08:23:03.561Z,75.36
2019-03-26T08:24:03.534Z,76.09
2019-03-26T08:25:03.521Z,76.50
2019-03-26T08:26:03.528Z,75.05
2019-03-26T08:27:03.510Z,75.46
2019-03-26T08:28:05.080Z,74.53
2019-03-26T08:29:03.485Z,75.05
2019-03-26T08:30:03.471Z,75.78
2019-03-26T08:31:03.458Z,75.26
2019-03-26T08:32:03.470Z,75.46
2019-03-26T08:33:03.441Z,74.88
2019-03-26T08:34:03.439Z,74.88
2019-03-26T08:35:03.417Z,75.81
2019-03-26T08:36:03.405Z,75.70
2019-03-26T08:37:03.398Z,74.46
2019-03-26T08:38:12.266Z,73.43
2019-03-26T08:39:04.378Z,72.91
2019-03-26T08:40:03.370Z,72.16
2019-03-26T08:41:03.355Z,71.53
2019-03-26T08:42:03.357Z,71.92
2019-03-26T08:43:03.333Z,70.16
2019-03-26T08:44:03.349Z,71.09
2019-03-26T08:45:03.305Z,71.19
2019-03-26T08:46:03.299Z,71.26
2019-03-26T08:47:03.286Z,70.17
2019-03-26T08:48:03.270Z,71.89
2019-03-26T08:49:03.270Z,67.60
2019-03-26T08:50:03.341Z,67.43
2019-03-26T08:51:03.247Z,66.09
2019-03-26T08:52:03.250Z,64.72
2019-03-26T08:53:03.258Z,64.93
2019-03-26T08:54:03.203Z,63.56
2019-03-26T08:55:04.462Z,63.43
2019-03-26T08:56:03.208Z,65.28
2019-03-26T08:57:03.169Z,64.66
2019-03-26T08:58:03.163Z,63.60
2019-03-26T08:59:03.144Z,61.35
2019-03-26T09:00:03.138Z,63.27
2019-03-26T09:01:03.123Z,63.03
2019-03-26T09:02:03.123Z,60.92
2019-03-26T09:03:03.097Z,59.00
2019-03-26T09:04:03.091Z,59.75
2019-03-26T09:05:03.075Z,60.95
2019-03-26T09:06:03.062Z,60.03
2019-03-26T09:07:03.054Z,59.87
2019-03-26T09:08:03.054Z,55.72
2019-03-26T09:09:03.044Z,58.58
2019-03-26T09:10:03.024Z,58.00
2019-03-26T09:11:03.004Z,57.51
2019-03-26T09:12:03.072Z,57.75
2019-03-26T09:13:02.988Z,58.21
2019-03-26T09:14:02.983Z,58.51
2019-03-26T09:15:02.961Z,59.57
2019-03-26T09:16:02.952Z,60.11
2019-03-26T09:17:02.935Z,60.35
2019-03-26T09:18:02.923Z,61.37
2019-03-26T09:19:02.912Z,62.40
2019-03-26T09:20:02.937Z,59.78
2019-03-26T09:21:02.894Z,61.66
2019-03-26T09:22:02.888Z,63.52
2019-03-26T09:23:02.869Z,63.24
2019-03-26T09:24:02.869Z,63.52
2019-03-26T09:25:02.849Z,61.46
2019-03-26T09:26:02.857Z,61.69
2019-03-26T09:27:02.822Z,63.13
2019-03-26T09:28:02.812Z,62.18
2019-03-26T09:29:02.800Z,64.00
2019-03-26T09:30:02.796Z,63.18
2019-03-26T09:31:02.776Z,64.03
2019-03-26T09:32:02.785Z,64.00
2019-03-26T09:33:02.753Z,63.82
2019-03-26T09:34:02.745Z,63.82
2019-03-26T09:35:02.732Z,64.27
2019-03-26T09:36:02.720Z,63.45
2019-03-26T09:37:02.711Z,63.57
2019-03-26T09:38:02.715Z,64.09
2019-03-26T09:39:02.686Z,64.50
2019-03-26T09:40:02.678Z,63.89
2019-03-26T09:41:02.660Z,64.71
2019-03-26T09:42:02.657Z,63.27
2019-03-26T09:43:02.643Z,63.57
2019-03-26T09:44:02.647Z,63.24
2019-03-26T09:45:02.617Z,63.54
2019-03-26T09:46:02.605Z,63.03
2019-03-26T09:47:15.209Z,64.75
2019-03-26T09:48:03.577Z,62.07
2019-03-26T09:49:02.584Z,61.87
2019-03-26T09:50:02.581Z,62.66
2019-03-26T09:51:02.548Z,63.07
2019-03-26T09:52:02.532Z,63.46
2019-03-26T09:53:02.546Z,64.36
2019-03-26T09:54:02.522Z,64.36
2019-03-26T09:55:02.501Z,63.53
2019-03-26T09:56:02.502Z,63.02
2019-03-26T09:57:02.482Z,62.84
2019-03-26T09:58:02.505Z,63.05
2019-03-26T09:59:02.462Z,63.87
2019-03-26T10:00:02.439Z,64.28
2019-03-26T10:01:02.428Z,64.51
2019-03-26T10:02:02.437Z,64.24
2019-03-26T10:03:02.413Z,64.03
2019-03-26T10:04:02.425Z,65.34
2019-03-26T10:05:02.389Z,63.18
2019-03-26T10:06:02.377Z,62.95
2019-03-26T10:07:02.364Z,63.59
2019-03-26T10:08:02.363Z,64.34
2019-03-26T10:09:02.339Z,65.03
2019-03-26T10:10:02.323Z,63.49
2019-03-26T10:11:02.312Z,64.51
2019-03-26T10:12:02.299Z,64.93
2019-03-26T10:13:02.311Z,64.11
2019-03-26T10:14:02.301Z,65.99
2019-03-26T10:15:02.270Z,64.86
2019-03-26T10:16:02.266Z,64.27
2019-03-26T10:17:02.259Z,66.02
2019-03-26T10:18:02.230Z,65.95
2019-03-26T10:19:02.216Z,65.95
2019-03-26T10:20:02.221Z,66.25
2019-03-26T10:21:02.238Z,67.80
2019-03-26T10:22:02.185Z,66.46
2019-03-26T10:23:02.175Z,66.05
2019-03-26T10:24:02.157Z,66.77
2019-03-26T10:25:02.173Z,67.70
2019-03-26T10:26:02.151Z,67.60
2019-03-26T10:27:02.122Z,66.67
2019-03-26T10:28:02.113Z,66.05
2019-03-26T10:29:18.728Z,67.39
2019-03-26T10:30:05.617Z,67.60
2019-03-26T10:31:02.069Z,65.84
2019-03-26T10:32:02.098Z,67.25
2019-03-26T10:33:02.049Z,67.46
2019-03-26T10:34:02.034Z,66.74
2019-03-26T10:35:02.033Z,67.74
2019-03-26T10:36:02.279Z,66.40
2019-03-26T10:37:01.997Z,67.19
2019-03-26T10:38:02.296Z,65.75
2019-03-26T10:39:05.607Z,65.03
2019-03-26T10:40:01.966Z,64.28
2019-03-26T10:41:01.948Z,65.34
2019-03-26T10:42:01.962Z,64.00
2019-03-26T10:43:01.940Z,65.34
2019-03-26T10:44:02.342Z,63.39
2019-03-26T10:45:01.991Z,65.03
2019-03-26T10:46:01.893Z,64.25
2019-03-26T10:47:01.934Z,61.57
2019-03-26T10:48:01.909Z,58.05
2019-03-26T10:49:01.858Z,56.07
2019-03-26T10:50:01.878Z,54.21
2019-03-26T10:51:01.835Z,55.30
2019-03-26T10:52:01.863Z,55.08
2019-03-26T10:53:01.824Z,57.33
2019-03-26T10:54:01.804Z,56.18
2019-03-26T10:55:01.791Z,55.38
2019-03-26T10:56:01.831Z,55.90
2019-03-26T10:57:01.829Z,56.23
2019-03-26T10:58:01.755Z,55.87
2019-03-26T10:59:04.152Z,58.03
2019-03-26T11:00:01.782Z,58.05
2019-03-26T11:01:01.867Z,60.92
2019-03-26T11:02:01.742Z,60.16
2019-03-26T11:03:01.882Z,61.44
2019-03-26T11:04:02.076Z,59.69
2019-03-26T11:05:01.707Z,58.28
2019-03-26T11:06:01.769Z,58.26
2019-03-26T11:07:01.704Z,58.36
2019-03-26T11:08:01.711Z,58.46
2019-03-26T11:09:01.627Z,59.62
2019-03-26T11:10:01.655Z,61.33
2019-03-26T11:11:01.912Z,60.82
2019-03-26T11:12:02.046Z,59.89
2019-03-26T11:13:01.584Z,57.77
2019-03-26T11:14:01.629Z,59.72
2019-03-26T11:15:01.563Z,61.49
2019-03-26T11:16:01.591Z,60.05
2019-03-26T11:17:01.570Z,61.70
2019-03-26T11:18:01.531Z,59.95
2019-03-26T11:19:01.532Z,60.70
2019-03-26T11:20:01.540Z,60.49
2019-03-26T11:21:03.062Z,63.37
2019-03-26T11:22:01.486Z,61.21
2019-03-26T11:23:01.474Z,62.14
2019-03-26T11:24:01.458Z,59.80
2019-03-26T11:25:01.453Z,59.08
2019-03-26T11:26:01.463Z,59.63
2019-03-26T11:27:01.428Z,61.27
2019-03-26T11:28:01.435Z,61.79
2019-03-26T11:29:01.402Z,61.27
2019-03-26T11:30:01.396Z,63.32
2019-03-26T11:31:01.387Z,61.58
2019-03-26T11:32:01.386Z,61.44
2019-03-26T11:33:01.358Z,61.79
2019-03-26T11:34:01.346Z,62.88
2019-03-26T11:35:01.350Z,62.34
2019-03-26T11:36:01.330Z,62.99
2019-03-26T11:37:01.327Z,61.83
2019-03-26T11:38:01.327Z,61.32
2019-03-26T11:39:01.291Z,61.32
2019-03-26T11:40:01.286Z,60.19
2019-03-26T11:41:01.271Z,60.93
2019-03-26T11:42:01.256Z,61.62
2019-03-26T11:43:01.243Z,62.45
2019-03-26T11:44:04.551Z,62.27
2019-03-26T11:45:01.224Z,63.27
2019-03-26T11:46:01.213Z,61.55
2019-03-26T11:47:01.196Z,61.27
2019-03-26T11:48:01.192Z,62.19
2019-03-26T11:49:01.181Z,63.74
2019-03-26T11:50:01.181Z,64.28
2019-03-26T11:51:01.152Z,63.97
2019-03-26T11:52:01.145Z,63.94
2019-03-26T11:53:01.130Z,63.64
2019-03-26T11:54:01.122Z,62.43
2019-03-26T11:55:01.108Z,64.25
2019-03-26T11:56:01.115Z,64.90
2019-03-26T11:57:01.087Z,65.17
2019-03-26T11:58:01.071Z,63.25
2019-03-26T11:59:01.073Z,65.00
2019-03-26T12:00:01.063Z,65.75
2019-03-26T12:01:01.037Z,65.34
2019-03-26T12:02:01.041Z,65.86
2019-03-26T12:03:01.016Z,65.26
2019-03-26T12:04:01.004Z,65.99
2019-03-26T12:05:00.994Z,66.88
2019-03-26T12:06:00.994Z,65.89
2019-03-26T12:07:00.971Z,65.92
2019-03-26T12:08:00.974Z,65.40
2019-03-26T12:09:00.944Z,65.40
2019-03-26T12:10:00.933Z,66.02
2019-03-26T12:11:00.929Z,65.71
2019-03-26T12:12:00.913Z,65.81
2019-03-26T12:13:00.899Z,66.74
2019-03-26T12:14:00.906Z,66.12
2019-03-26T12:15:00.874Z,66.56
2019-03-26T12:16:00.870Z,66.36
2019-03-26T12:17:00.850Z,66.56
2019-03-26T12:18:00.837Z,66.67
2019-03-26T12:19:00.838Z,67.29
2019-03-26T12:20:00.845Z,67.29
2019-03-26T12:21:00.808Z,67.60
2019-03-26T12:22:00.799Z,67.39
2019-03-26T12:23:00.779Z,67.60
2019-03-26T12:24:00.764Z,67.36
2019-03-26T12:25:00.756Z,67.22
2019-03-26T12:26:00.768Z,67.43
2019-03-26T12:27:00.728Z,66.67
2019-03-26T12:28:00.717Z,65.65
2019-03-26T12:29:00.707Z,65.99
2019-03-26T12:30:00.698Z,65.92
2019-03-26T12:31:00.685Z,65.83
2019-03-26T12:32:00.693Z,65.92
2019-03-26T12:33:00.660Z,65.11
2019-03-26T12:34:00.649Z,64.31
2019-03-26T12:35:00.640Z,64.65
2019-03-26T12:36:00.632Z,64.96
2019-03-26T12:37:00.633Z,64.47
2019-03-26T12:38:00.619Z,65.61
2019-03-26T12:39:00.606Z,65.19
2019-03-26T12:40:00.969Z,65.61
2019-03-26T12:41:00.564Z,65.50
2019-03-26T12:42:00.554Z,66.22
2019-03-26T12:43:00.541Z,66.81
2019-03-26T12:44:00.564Z,65.89
2019-03-26T12:45:00.517Z,65.16
2019-03-26T12:46:02.036Z,64.86
2019-03-26T12:47:00.496Z,66.78
2019-03-26T12:48:00.501Z,65.75
2019-03-26T12:49:00.467Z,65.72
2019-03-26T12:50:00.532Z,65.52
2019-03-26T12:51:00.446Z,65.41
2019-03-26T12:52:00.438Z,64.76